Carmen, Idaho
Current Conditions -  °F | °C
As of 3:55 AM on Monday 20 Oct 2014 (Local Time) from KLLJ Reporting Station
Clear Clear  
Wind Chill:   Ceiling: Unl
Heat Index:   Visibility: 10mi
Dew Point: -3°   Wind: 0mph
Humidity: 72%   Direction: NA
Pressure: 30.05"   Gusts: NA
Location:  45.24°N, 113.89°W
Report Text: KLLJ 200955Z AUTO 00000KT 10SM CLR 02/M03 A3005 RMK AO2 SLP148 T00171028
Loading
Personal Weather Stations






























Interactive Weather Map
Tropical Storm Tracking
New forecast layout! Learn more

10-Day Weather Forecast

Advertisements
Track Severe Weather on mobile